createdAt,value
2018-08-27T04:53:13.274Z,14.80
2018-08-27T04:55:45.793Z,14.80
2018-08-27T04:58:18.226Z,14.90
2018-08-27T05:00:50.632Z,14.90
2018-08-27T05:03:23.073Z,15.00
2018-08-27T05:05:55.425Z,15.00
2018-08-27T05:08:27.751Z,15.00
2018-08-27T05:11:00.120Z,15.10
2018-08-27T05:13:33.485Z,15.10
2018-08-27T05:16:05.808Z,15.10
2018-08-27T05:18:38.159Z,15.10
2018-08-27T05:21:10.505Z,15.10
2018-08-27T05:23:42.863Z,15.10
2018-08-27T05:26:15.217Z,15.20
2018-08-27T05:28:47.552Z,15.20
2018-08-27T05:31:20.073Z,15.20
2018-08-27T05:33:52.360Z,15.30
2018-08-27T05:36:29.655Z,15.40
2018-08-27T05:39:01.985Z,15.40
2018-08-27T05:41:34.341Z,15.50
2018-08-27T05:44:06.696Z,15.50
2018-08-27T05:46:39.048Z,15.50
2018-08-27T05:49:11.420Z,15.60
2018-08-27T05:51:43.794Z,15.70
2018-08-27T05:54:16.161Z,15.80
2018-08-27T05:56:48.584Z,15.80
2018-08-27T05:59:20.916Z,15.80
2018-08-27T06:01:53.290Z,15.90
2018-08-27T06:04:25.594Z,15.90
2018-08-27T06:06:57.941Z,16.00
2018-08-27T06:09:30.267Z,16.00
2018-08-27T06:12:02.632Z,16.00
2018-08-27T06:14:35.070Z,16.10
2018-08-27T06:17:08.278Z,16.20
2018-08-27T06:19:40.524Z,16.20
2018-08-27T06:22:12.980Z,16.20
2018-08-27T06:24:45.197Z,16.20
2018-08-27T06:27:17.646Z,16.30
2018-08-27T06:29:49.976Z,16.30
2018-08-27T06:32:22.536Z,16.40
2018-08-27T06:34:55.501Z,16.50
2018-08-27T06:37:27.858Z,16.60
2018-08-27T06:40:00.221Z,16.60
2018-08-27T06:42:32.556Z,16.70
2018-08-27T06:45:05.435Z,16.80
2018-08-27T06:47:37.786Z,16.90
2018-08-27T06:50:10.101Z,16.90
2018-08-27T06:52:42.427Z,16.90
2018-08-27T06:55:14.748Z,16.90
2018-08-27T06:57:47.085Z,17.00
2018-08-27T07:00:19.404Z,17.10
2018-08-27T07:02:51.731Z,17.20
2018-08-27T07:05:24.096Z,17.20
2018-08-27T07:07:56.427Z,17.30
2018-08-27T07:10:28.748Z,17.30
2018-08-27T07:13:02.164Z,17.40
2018-08-27T07:15:34.493Z,17.50
2018-08-27T07:18:06.844Z,17.60
2018-08-27T07:20:39.155Z,17.70
2018-08-27T07:23:11.561Z,17.90
2018-08-27T07:25:43.885Z,17.90
2018-08-27T07:28:16.246Z,18.10
2018-08-27T07:30:48.552Z,18.20
2018-08-27T07:33:20.902Z,18.30
2018-08-27T07:35:53.315Z,18.40
2018-08-27T07:38:25.632Z,18.40
2018-08-27T07:40:57.961Z,18.50
2018-08-27T07:43:30.297Z,18.60
2018-08-27T07:46:02.735Z,18.70
2018-08-27T07:48:35.055Z,18.70
2018-08-27T07:51:07.372Z,18.80
2018-08-27T07:53:39.684Z,18.90
2018-08-27T07:56:12.006Z,18.80
2018-08-27T07:58:44.361Z,18.80
2018-08-27T08:01:16.660Z,18.90
2018-08-27T08:03:48.993Z,18.90
2018-08-27T08:06:21.299Z,18.90
2018-08-27T08:08:53.623Z,19.00
2018-08-27T08:11:25.922Z,19.00
2018-08-27T08:13:58.265Z,19.10
2018-08-27T08:16:30.572Z,19.10
2018-08-27T08:19:04.225Z,19.20
2018-08-27T08:21:36.531Z,19.20
2018-08-27T08:24:08.997Z,19.20
2018-08-27T08:26:41.348Z,19.20
2018-08-27T08:29:13.680Z,19.20
2018-08-27T08:31:46.009Z,19.30
2018-08-27T08:34:18.332Z,19.30
2018-08-27T08:36:50.644Z,19.40
2018-08-27T08:39:22.970Z,19.50
2018-08-27T08:41:55.290Z,19.60
2018-08-27T08:44:27.622Z,19.80
2018-08-27T08:46:59.932Z,20.00
2018-08-27T08:49:32.254Z,20.00
2018-08-27T08:52:05.078Z,20.10
2018-08-27T08:54:37.400Z,20.00
2018-08-27T08:57:09.748Z,19.90
2018-08-27T08:59:42.091Z,19.80
2018-08-27T09:02:14.669Z,19.90
2018-08-27T09:04:47.017Z,19.90
2018-08-27T09:07:19.324Z,20.00
2018-08-27T09:09:51.681Z,20.20
2018-08-27T09:12:24.444Z,20.40
2018-08-27T09:14:56.762Z,20.80
2018-08-27T09:17:29.091Z,21.10
2018-08-27T09:20:03.413Z,21.30
2018-08-27T09:22:35.744Z,21.40
2018-08-27T09:25:08.085Z,21.40
2018-08-27T09:27:40.396Z,21.40
2018-08-27T09:30:12.774Z,21.50
2018-08-27T09:32:45.096Z,21.60
2018-08-27T09:35:17.445Z,21.70
2018-08-27T09:37:49.773Z,21.90
2018-08-27T09:40:22.117Z,21.90
2018-08-27T09:42:54.438Z,22.00
2018-08-27T09:45:26.800Z,22.10
2018-08-27T09:47:59.112Z,22.20
2018-08-27T09:50:31.483Z,22.40
2018-08-27T09:53:03.811Z,22.60
2018-08-27T09:55:36.149Z,22.80
2018-08-27T09:58:08.464Z,23.00
2018-08-27T10:00:40.788Z,23.20
2018-08-27T10:03:13.124Z,23.40
2018-08-27T10:05:45.458Z,23.70
2018-08-27T10:08:17.767Z,23.80
2018-08-27T10:10:50.115Z,24.00
2018-08-27T10:13:22.435Z,24.10
2018-08-27T10:15:54.766Z,24.00
2018-08-27T10:18:27.098Z,23.90
2018-08-27T10:20:59.437Z,23.60
2018-08-27T10:23:31.748Z,23.50
2018-08-27T10:26:04.140Z,23.50
2018-08-27T10:28:36.472Z,23.40
2018-08-27T10:31:08.773Z,23.50
2018-08-27T10:33:41.100Z,23.60
2018-08-27T10:36:13.439Z,23.80
2018-08-27T10:38:45.765Z,23.90
2018-08-27T10:41:18.100Z,24.00
2018-08-27T10:43:50.425Z,24.10
2018-08-27T10:46:22.756Z,24.20
2018-08-27T10:48:55.089Z,24.30
2018-08-27T10:51:27.432Z,24.30
2018-08-27T10:53:59.764Z,24.50
2018-08-27T10:56:32.108Z,24.40
2018-08-27T10:59:04.447Z,24.20
2018-08-27T11:01:36.807Z,24.20
2018-08-27T11:04:09.134Z,24.10
2018-08-27T11:06:41.593Z,24.00
2018-08-27T11:09:13.896Z,23.80
2018-08-27T11:11:46.257Z,23.80
2018-08-27T11:14:18.568Z,23.80
2018-08-27T11:16:50.911Z,23.80
2018-08-27T11:19:23.287Z,23.80
2018-08-27T11:21:55.628Z,23.70
2018-08-27T11:24:28.091Z,23.70
2018-08-27T11:27:00.428Z,23.80
2018-08-27T11:29:33.004Z,24.00
2018-08-27T11:32:05.548Z,24.20
2018-08-27T11:34:37.878Z,24.30
2018-08-27T11:37:10.209Z,24.30
2018-08-27T11:39:42.531Z,24.30
2018-08-27T11:42:14.886Z,24.20
2018-08-27T11:44:47.376Z,24.20
2018-08-27T11:47:19.713Z,24.20
2018-08-27T11:49:52.060Z,24.00
2018-08-27T11:52:24.410Z,23.80
2018-08-27T11:54:56.805Z,23.70
2018-08-27T11:57:29.300Z,23.70
2018-08-27T12:00:01.674Z,23.80
2018-08-27T12:02:34.312Z,24.00
2018-08-27T12:05:06.788Z,24.00
2018-08-27T12:07:39.132Z,24.10
2018-08-27T12:10:11.476Z,24.10
2018-08-27T12:12:43.792Z,24.00
2018-08-27T12:15:16.103Z,24.00
2018-08-27T12:17:48.452Z,23.90
2018-08-27T12:20:20.764Z,23.90
2018-08-27T12:22:53.317Z,24.00
2018-08-27T12:25:25.729Z,24.10
2018-08-27T12:27:58.052Z,24.20
2018-08-27T12:30:30.376Z,24.10
2018-08-27T12:33:02.704Z,24.00
2018-08-27T12:35:35.042Z,24.00
2018-08-27T12:38:07.367Z,24.00
2018-08-27T12:40:39.730Z,24.00
2018-08-27T12:43:12.031Z,23.90
2018-08-27T12:45:44.498Z,23.90
2018-08-27T12:48:16.851Z,23.90
2018-08-27T12:50:49.194Z,23.90
2018-08-27T12:53:21.496Z,24.00
2018-08-27T12:55:53.877Z,24.00
2018-08-27T12:58:26.221Z,24.00
2018-08-27T13:00:58.560Z,24.10
2018-08-27T13:03:30.965Z,24.10
2018-08-27T13:06:03.302Z,24.10
2018-08-27T13:08:35.685Z,24.10
2018-08-27T13:11:08.001Z,24.10
2018-08-27T13:13:40.344Z,24.00
2018-08-27T13:16:12.652Z,24.00
2018-08-27T13:18:44.992Z,24.00
2018-08-27T13:21:17.366Z,23.90
2018-08-27T13:23:49.773Z,23.80
2018-08-27T13:26:22.132Z,23.70
2018-08-27T13:28:54.473Z,23.70
2018-08-27T13:31:26.920Z,23.60
2018-08-27T13:33:59.169Z,23.50
2018-08-27T13:36:31.485Z,23.50
2018-08-27T13:39:05.891Z,23.50
2018-08-27T13:41:38.245Z,23.50
2018-08-27T13:44:10.616Z,23.50
2018-08-27T13:46:42.961Z,23.50
2018-08-27T13:49:15.381Z,23.50
2018-08-27T13:51:47.705Z,23.60
2018-08-27T13:54:20.032Z,23.70
2018-08-27T13:56:52.467Z,23.70
2018-08-27T13:59:24.796Z,23.80
2018-08-27T14:01:57.107Z,23.80
2018-08-27T14:04:29.432Z,23.80
2018-08-27T14:07:01.766Z,23.90
2018-08-27T14:09:34.259Z,23.90
2018-08-27T14:12:06.717Z,23.80
2018-08-27T14:14:39.062Z,23.70
2018-08-27T14:17:11.360Z,23.60
2018-08-27T14:19:43.789Z,23.50
2018-08-27T14:22:16.037Z,23.50
2018-08-27T14:24:48.363Z,23.50
2018-08-27T14:27:21.733Z,23.40
2018-08-27T14:29:54.135Z,23.40
2018-08-27T14:32:26.485Z,23.40
2018-08-27T14:34:58.815Z,23.50
2018-08-27T14:37:31.204Z,23.50
2018-08-27T14:40:03.649Z,23.50
2018-08-27T14:42:36.007Z,23.50
2018-08-27T14:45:08.333Z,23.50
2018-08-27T14:47:40.625Z,23.50
2018-08-27T14:50:12.964Z,23.60
2018-08-27T14:52:45.532Z,23.70
2018-08-27T14:55:17.982Z,23.60
2018-08-27T14:57:50.305Z,23.60
2018-08-27T15:00:22.657Z,23.60
2018-08-27T15:02:54.989Z,23.60
2018-08-27T15:05:27.355Z,23.50
2018-08-27T15:07:59.680Z,23.40
2018-08-27T15:10:32.036Z,23.30
2018-08-27T15:13:04.837Z,23.10
2018-08-27T15:15:37.177Z,23.00
2018-08-27T15:18:09.500Z,23.00
2018-08-27T15:20:41.930Z,22.90
2018-08-27T15:23:14.277Z,22.90
2018-08-27T15:25:46.806Z,22.90
2018-08-27T15:28:19.603Z,22.90
2018-08-27T15:30:51.941Z,22.90
2018-08-27T15:33:24.349Z,23.00
2018-08-27T15:35:56.693Z,23.10
2018-08-27T15:38:29.343Z,23.10
2018-08-27T15:41:01.601Z,23.10
2018-08-27T15:43:34.008Z,23.00
2018-08-27T15:46:06.296Z,23.00
2018-08-27T15:48:38.644Z,23.00
2018-08-27T15:51:11.019Z,22.90
2018-08-27T15:53:43.324Z,22.90
2018-08-27T15:56:15.696Z,22.80
2018-08-27T15:58:48.017Z,22.80
2018-08-27T16:01:20.373Z,22.70
2018-08-27T16:03:52.693Z,22.60
2018-08-27T16:06:25.133Z,22.50
2018-08-27T16:08:57.640Z,22.40
2018-08-27T16:11:30.189Z,22.40
2018-08-27T16:14:02.558Z,22.30
2018-08-27T16:16:35.023Z,22.30
2018-08-27T16:19:07.423Z,22.20
2018-08-27T16:21:39.933Z,22.20
2018-08-27T16:24:12.317Z,22.20
2018-08-27T16:26:44.666Z,22.20
2018-08-27T16:29:19.069Z,22.10
2018-08-27T16:31:51.490Z,22.10
2018-08-27T16:34:24.599Z,22.10
2018-08-27T16:36:57.026Z,22.10
2018-08-27T16:39:29.421Z,22.10
2018-08-27T16:42:01.701Z,22.00
2018-08-27T16:44:34.121Z,22.00
2018-08-27T16:47:06.489Z,22.00
2018-08-27T16:49:38.815Z,21.90
2018-08-27T16:52:11.280Z,21.90
2018-08-27T16:54:43.701Z,21.90
2018-08-27T16:57:16.056Z,21.90
2018-08-27T16:59:48.387Z,21.80
2018-08-27T17:02:20.748Z,21.70
2018-08-27T17:04:53.060Z,21.70
2018-08-27T17:07:25.405Z,21.60
2018-08-27T17:09:57.743Z,21.60
2018-08-27T17:12:30.144Z,21.60
2018-08-27T17:15:02.489Z,21.50
2018-08-27T17:17:34.817Z,21.40
2018-08-27T17:20:07.491Z,21.40
2018-08-27T17:22:39.799Z,21.40
2018-08-27T17:25:12.120Z,21.30
2018-08-27T17:27:44.438Z,21.30
2018-08-27T17:30:16.744Z,21.30
2018-08-27T17:32:49.067Z,21.20
2018-08-27T17:35:21.384Z,21.20
2018-08-27T17:37:53.737Z,21.10
2018-08-27T17:40:26.061Z,21.10
2018-08-27T17:42:58.404Z,21.00
2018-08-27T17:45:30.806Z,21.00
2018-08-27T17:48:03.117Z,21.00
2018-08-27T17:50:35.424Z,20.90
2018-08-27T17:53:07.777Z,20.90
2018-08-27T17:55:40.202Z,20.80
2018-08-27T17:58:12.651Z,20.70
2018-08-27T18:00:44.891Z,20.70
2018-08-27T18:03:17.493Z,20.70
2018-08-27T18:05:49.751Z,20.60
2018-08-27T18:08:22.142Z,20.60
2018-08-27T18:10:54.441Z,20.50
2018-08-27T18:13:26.792Z,20.50
2018-08-27T18:15:59.115Z,20.40
2018-08-27T18:18:31.456Z,20.30
2018-08-27T18:21:03.864Z,20.20
2018-08-27T18:23:36.176Z,20.10
2018-08-27T18:26:08.501Z,20.10
2018-08-27T18:28:40.963Z,20.00
2018-08-27T18:31:13.653Z,20.00
2018-08-27T18:33:45.980Z,20.00
2018-08-27T18:36:18.307Z,19.90
2018-08-27T18:38:50.659Z,19.90
2018-08-27T18:41:23.007Z,19.90
2018-08-27T18:43:55.341Z,19.80
2018-08-27T18:46:27.648Z,19.70
2018-08-27T18:49:00.152Z,19.60
2018-08-27T18:51:32.498Z,19.60
2018-08-27T18:54:05.017Z,19.50
2018-08-27T18:56:37.471Z,19.50
2018-08-27T18:59:10.813Z,19.40
2018-08-27T19:01:43.138Z,19.40
2018-08-27T19:04:15.483Z,19.40
2018-08-27T19:06:47.843Z,19.30
2018-08-27T19:09:20.229Z,19.30
2018-08-27T19:11:52.556Z,19.30
2018-08-27T19:14:24.923Z,19.30
2018-08-27T19:16:57.240Z,19.30
2018-08-27T19:19:29.717Z,19.20
2018-08-27T19:22:02.061Z,19.20
2018-08-27T19:24:34.446Z,19.20
2018-08-27T19:27:06.982Z,19.20
2018-08-27T19:29:39.468Z,19.20
2018-08-27T19:32:12.516Z,19.10
2018-08-27T19:34:44.996Z,19.10
2018-08-27T19:37:17.398Z,19.10
2018-08-27T19:39:49.621Z,19.10
2018-08-27T19:42:21.993Z,19.10
2018-08-27T19:44:54.592Z,19.10
2018-08-27T19:47:26.920Z,19.10
2018-08-27T19:49:59.356Z,19.10
2018-08-27T19:52:31.772Z,19.10
2018-08-27T19:55:04.206Z,19.00
2018-08-27T19:57:36.686Z,19.00
2018-08-27T20:00:08.981Z,19.00
2018-08-27T20:02:41.424Z,19.00
2018-08-27T20:05:13.726Z,19.00
2018-08-27T20:07:46.138Z,19.00
2018-08-27T20:10:18.451Z,18.90
